createdAt,value
2023-01-13T00:05:59.681Z,95755.28
2023-01-13T00:16:03.049Z,95746.72
2023-01-13T00:26:08.283Z,95730.69
2023-01-13T00:36:13.458Z,95719.06
2023-01-13T00:46:18.649Z,95707.56
2023-01-13T00:56:38.559Z,95698.53
2023-01-13T01:06:43.322Z,95691.94
2023-01-13T01:16:45.832Z,95686.13
2023-01-13T01:26:49.672Z,95702.16
2023-01-13T01:36:52.227Z,95710.47
2023-01-13T01:46:57.401Z,95706.75
2023-01-13T01:57:00.012Z,95687.50
2023-01-13T02:07:04.922Z,95677.78
2023-01-13T02:17:14.290Z,95679.66
2023-01-13T02:27:25.719Z,95663.41
2023-01-13T02:37:31.100Z,95661.06
2023-01-13T02:47:35.223Z,95645.75
2023-01-13T02:57:40.550Z,95649.72
2023-01-13T03:08:07.025Z,95637.38
2023-01-13T03:18:16.244Z,95618.78
2023-01-13T03:28:20.696Z,95616.34
2023-01-13T03:38:26.512Z,95625.16
2023-01-13T03:48:31.345Z,95604.88
2023-01-13T03:58:38.914Z,95586.81
2023-01-13T04:08:45.002Z,95576.91
2023-01-13T04:18:50.927Z,95565.25
2023-01-13T04:28:54.739Z,95550.91
2023-01-13T04:38:59.084Z,95563.69
2023-01-13T04:49:01.586Z,95555.19
2023-01-13T04:59:05.377Z,95551.72
2023-01-13T05:09:07.832Z,95556.25
2023-01-13T05:19:11.608Z,95548.31
2023-01-13T05:29:14.165Z,95556.53
2023-01-13T05:39:18.053Z,95548.25
2023-01-13T05:49:20.539Z,95549.78
2023-01-13T05:59:24.396Z,95551.72
2023-01-13T06:09:26.897Z,95551.16
2023-01-13T06:19:31.014Z,95561.22
2023-01-13T06:29:33.680Z,95558.28
2023-01-13T06:39:37.645Z,95564.66
2023-01-13T06:49:40.467Z,95560.56
2023-01-13T06:59:44.408Z,95551.50
2023-01-13T07:09:47.294Z,95550.44
2023-01-13T07:19:51.299Z,95563.19
2023-01-13T07:29:53.696Z,95551.31
2023-01-13T07:39:57.693Z,95555.06
2023-01-13T07:50:00.268Z,95561.50
2023-01-13T08:00:04.850Z,95577.03
2023-01-13T08:10:08.046Z,95596.19
2023-01-13T08:20:12.721Z,95593.13
2023-01-13T08:30:15.384Z,95616.13
2023-01-13T08:40:20.789Z,95610.63
2023-01-13T08:50:23.436Z,95628.25
2023-01-13T09:00:27.533Z,95629.63
2023-01-13T09:10:30.158Z,95646.50
2023-01-13T09:20:34.368Z,95660.72
2023-01-13T09:30:38.192Z,95675.44
2023-01-13T09:40:43.860Z,95703.59
2023-01-13T09:50:52.018Z,95710.81
2023-01-13T10:01:01.244Z,95712.88
2023-01-13T10:11:31.365Z,95731.91
2023-01-13T10:21:53.558Z,95720.34
2023-01-13T10:31:56.925Z,95723.09
2023-01-13T10:42:05.049Z,95715.34
2023-01-13T10:52:25.628Z,95700.84
2023-01-13T11:02:30.671Z,95752.69
2023-01-13T11:12:34.280Z,95769.91
2023-01-13T11:22:40.380Z,95791.91
2023-01-13T11:32:48.508Z,95799.44
2023-01-13T11:42:56.267Z,95816.63
2023-01-13T11:53:13.817Z,95831.16
2023-01-13T12:03:24.728Z,95819.00
2023-01-13T12:13:34.754Z,95805.94
2023-01-13T12:23:44.887Z,95815.28
2023-01-13T12:33:55.809Z,95816.31
2023-01-13T12:44:23.176Z,95841.59
2023-01-13T12:55:00.048Z,95847.56
2023-01-13T13:05:34.290Z,95851.03
2023-01-13T13:15:37.124Z,95851.31
2023-01-13T13:26:00.036Z,95844.84
2023-01-13T13:36:09.251Z,95834.81
2023-01-13T13:46:43.211Z,95854.84
2023-01-13T13:56:47.228Z,95857.78
2023-01-13T14:06:52.014Z,95863.59
2023-01-13T14:16:55.306Z,95881.09
2023-01-13T14:27:15.571Z,95882.91
2023-01-13T14:37:26.262Z,95905.06
2023-01-13T14:47:33.152Z,95916.69
2023-01-13T14:57:36.195Z,95936.84
2023-01-13T15:07:40.480Z,95936.69
2023-01-13T15:17:43.424Z,95948.34
2023-01-13T15:27:50.161Z,95971.28
2023-01-13T15:37:53.066Z,95981.84
2023-01-13T15:47:57.034Z,95977.75
2023-01-13T15:57:59.778Z,95980.78
2023-01-13T16:08:03.913Z,96001.34
2023-01-13T16:18:06.564Z,96012.44
2023-01-13T16:28:19.817Z,96042.41
2023-01-13T16:38:22.430Z,96042.63
2023-01-13T16:48:26.399Z,96054.53
2023-01-13T16:58:28.863Z,96076.97
2023-01-13T17:08:32.721Z,96100.47
2023-01-13T17:18:35.236Z,96143.16
2023-01-13T17:28:40.839Z,96161.59
2023-01-13T17:38:43.312Z,96164.06
2023-01-13T17:48:47.263Z,96187.13
2023-01-13T17:58:49.686Z,96196.44
2023-01-13T18:08:53.705Z,96190.97
2023-01-13T18:19:17.131Z,96201.78
2023-01-13T18:29:21.083Z,96224.06
2023-01-13T18:39:23.573Z,96221.22
2023-01-13T18:49:27.899Z,96240.41
2023-01-13T18:59:31.044Z,96239.56
2023-01-13T19:09:34.930Z,96258.69
2023-01-13T19:19:40.897Z,96277.03
2023-01-13T19:29:51.808Z,96290.59
2023-01-13T19:39:54.757Z,96287.38
2023-01-13T19:49:58.643Z,96301.84
2023-01-13T20:00:01.217Z,96312.03
2023-01-13T20:10:05.493Z,96325.09
2023-01-13T20:20:09.018Z,96336.94
2023-01-13T20:30:14.387Z,96349.19
2023-01-13T20:40:18.338Z,96372.78
2023-01-13T20:50:22.373Z,96352.41
2023-01-13T21:00:24.973Z,96364.69
2023-01-13T21:10:28.963Z,96349.78
2023-01-13T21:20:33.437Z,96337.53
2023-01-13T21:30:38.097Z,96340.63
2023-01-13T21:40:40.536Z,96357.75
2023-01-13T21:50:45.275Z,96375.94
2023-01-13T22:00:49.508Z,96383.25
2023-01-13T22:10:58.529Z,96396.13
2023-01-13T22:21:01.646Z,96403.06
2023-01-13T22:31:09.553Z,96392.25
2023-01-13T22:41:12.025Z,96392.41
2023-01-13T22:51:16.594Z,96395.03
2023-01-13T23:01:19.112Z,96416.88
2023-01-13T23:11:24.573Z,96392.59
2023-01-13T23:21:28.756Z,96404.81
2023-01-13T23:31:32.822Z,96407.25
2023-01-13T23:41:35.294Z,96396.41
2023-01-13T23:51:39.171Z,96399.88
